createdAt,value
2023-03-27T00:00:51.691Z,0.00
2023-03-27T00:01:52.056Z,0.00
2023-03-27T00:02:52.289Z,0.00
2023-03-27T00:03:52.837Z,0.00
2023-03-27T00:04:52.822Z,0.00
2023-03-27T00:05:52.991Z,0.00
2023-03-27T00:06:53.282Z,0.00
2023-03-27T00:07:53.595Z,0.00
2023-03-27T00:08:54.297Z,0.00
2023-03-27T00:09:55.000Z,0.00
2023-03-27T00:10:54.665Z,0.00
2023-03-27T00:11:54.628Z,0.00
2023-03-27T00:12:55.767Z,0.00
2023-03-27T00:13:55.259Z,0.00
2023-03-27T00:14:55.736Z,0.00
2023-03-27T00:15:55.934Z,0.00
2023-03-27T00:16:56.260Z,0.00
2023-03-27T00:17:56.502Z,0.00
2023-03-27T00:18:57.901Z,0.00
2023-03-27T00:19:57.025Z,1.00
2023-03-27T00:20:57.635Z,0.00
2023-03-27T00:21:58.208Z,0.00
2023-03-27T00:22:57.958Z,0.00
2023-03-27T00:23:58.580Z,0.00
2023-03-27T00:24:58.667Z,0.00
2023-03-27T00:25:58.788Z,0.00
2023-03-27T00:26:59.191Z,0.00
2023-03-27T00:27:59.715Z,0.00
2023-03-27T00:28:59.720Z,0.00
2023-03-27T00:30:01.141Z,0.00
2023-03-27T00:31:00.605Z,0.00
2023-03-27T00:32:00.537Z,0.00
2023-03-27T00:33:01.180Z,0.00
2023-03-27T00:34:01.250Z,0.00
2023-03-27T00:35:01.412Z,0.00
2023-03-27T00:36:01.860Z,0.00
2023-03-27T00:37:02.026Z,0.00
2023-03-27T00:38:02.351Z,0.00
2023-03-27T00:39:02.747Z,0.00
2023-03-27T00:40:02.859Z,0.00
2023-03-27T00:41:03.383Z,0.00
2023-03-27T00:42:03.629Z,0.00
2023-03-27T00:43:03.858Z,0.00
2023-03-27T00:44:04.123Z,0.00
2023-03-27T00:45:04.425Z,0.00
2023-03-27T00:46:04.713Z,0.00
2023-03-27T00:47:04.968Z,0.00
2023-03-27T00:48:05.454Z,1.00
2023-03-27T00:49:05.691Z,0.00
2023-03-27T00:50:05.901Z,0.00
2023-03-27T00:51:06.163Z,0.00
2023-03-27T00:52:06.427Z,0.00
2023-03-27T00:53:06.689Z,0.00
2023-03-27T00:54:07.073Z,0.00
2023-03-27T00:55:07.296Z,0.00
2023-03-27T00:56:07.695Z,0.00
2023-03-27T00:57:08.014Z,0.00
2023-03-27T00:58:08.393Z,0.00
2023-03-27T00:59:08.507Z,0.00
2023-03-27T01:00:09.513Z,0.00
2023-03-27T01:01:10.032Z,0.00
2023-03-27T01:02:13.989Z,0.00
2023-03-27T01:03:09.839Z,0.00
2023-03-27T01:04:10.049Z,0.00
2023-03-27T01:05:10.371Z,0.00
2023-03-27T01:06:10.700Z,0.00
2023-03-27T01:07:11.109Z,0.00
2023-03-27T01:08:11.291Z,0.00
2023-03-27T01:09:11.520Z,0.00
2023-03-27T01:10:12.875Z,0.00
2023-03-27T01:11:12.182Z,0.00
2023-03-27T01:12:12.467Z,0.00
2023-03-27T01:13:12.749Z,0.00
2023-03-27T01:14:13.083Z,0.00
2023-03-27T01:15:13.319Z,0.00
2023-03-27T01:16:13.754Z,0.00
2023-03-27T01:17:13.926Z,0.00
2023-03-27T01:18:14.211Z,0.00
2023-03-27T01:19:14.492Z,0.00
2023-03-27T01:20:14.860Z,0.00
2023-03-27T01:21:15.113Z,0.00
2023-03-27T01:22:15.468Z,0.00
2023-03-27T01:23:15.767Z,0.00
2023-03-27T01:24:17.069Z,0.00
2023-03-27T01:25:16.384Z,0.00
2023-03-27T01:26:16.670Z,0.00
2023-03-27T01:27:16.974Z,0.00
2023-03-27T01:28:17.299Z,0.00
2023-03-27T01:29:17.593Z,0.00
2023-03-27T01:30:17.877Z,0.00
2023-03-27T01:31:18.173Z,0.00
2023-03-27T01:32:18.473Z,0.00
2023-03-27T01:33:18.808Z,0.00
2023-03-27T01:34:19.115Z,0.00
2023-03-27T01:35:19.467Z,0.00
2023-03-27T01:36:19.728Z,0.00
2023-03-27T01:37:20.017Z,0.00
2023-03-27T01:38:20.270Z,1.00
2023-03-27T01:39:20.648Z,0.00
2023-03-27T01:40:21.475Z,0.00
2023-03-27T01:41:21.188Z,0.00
2023-03-27T01:42:21.512Z,0.00
2023-03-27T01:43:21.786Z,0.00
2023-03-27T01:44:22.164Z,0.00
2023-03-27T01:45:22.327Z,0.00
2023-03-27T01:46:22.648Z,0.00
2023-03-27T01:47:23.027Z,0.00
2023-03-27T01:48:23.261Z,0.00
2023-03-27T01:49:23.514Z,0.00
2023-03-27T01:50:23.820Z,0.00
2023-03-27T01:51:24.148Z,0.00
2023-03-27T01:52:24.422Z,0.00
2023-03-27T01:53:24.732Z,0.00
2023-03-27T01:54:25.071Z,0.00
2023-03-27T01:55:25.374Z,0.00
2023-03-27T01:56:25.680Z,0.00
2023-03-27T01:57:25.931Z,0.00
2023-03-27T01:58:26.279Z,0.00
2023-03-27T01:59:26.546Z,0.00
2023-03-27T02:00:26.974Z,0.00
2023-03-27T02:01:28.236Z,0.00
2023-03-27T02:02:27.441Z,0.00
2023-03-27T02:03:27.725Z,0.00
2023-03-27T02:04:28.044Z,0.00
2023-03-27T02:05:28.243Z,0.00
2023-03-27T02:06:28.631Z,0.00
2023-03-27T02:07:28.863Z,0.00
2023-03-27T02:08:29.131Z,0.00
2023-03-27T02:09:29.519Z,0.00
2023-03-27T02:10:29.781Z,0.00
2023-03-27T02:11:30.093Z,0.00
2023-03-27T02:12:30.420Z,0.00
2023-03-27T02:13:30.705Z,0.00
2023-03-27T02:14:31.023Z,0.00
2023-03-27T02:15:31.323Z,0.00
2023-03-27T02:16:31.652Z,0.00
2023-03-27T02:17:31.888Z,0.00
2023-03-27T02:18:32.237Z,0.00
2023-03-27T02:19:32.491Z,0.00
2023-03-27T02:20:32.839Z,0.00
2023-03-27T02:21:33.188Z,0.00
2023-03-27T02:22:37.835Z,0.00
2023-03-27T02:23:34.794Z,0.00
2023-03-27T02:24:34.073Z,0.00
2023-03-27T02:25:34.398Z,0.00
2023-03-27T02:26:34.686Z,0.00
2023-03-27T02:27:34.965Z,0.00
2023-03-27T02:28:35.329Z,0.00
2023-03-27T02:29:35.555Z,0.00
2023-03-27T02:30:35.879Z,0.00
2023-03-27T02:31:36.514Z,0.00
2023-03-27T02:32:36.762Z,0.00
2023-03-27T02:33:36.817Z,0.00
2023-03-27T02:34:37.127Z,0.00
2023-03-27T02:35:37.429Z,0.00
2023-03-27T02:36:37.824Z,0.00
2023-03-27T02:37:37.918Z,0.00
2023-03-27T02:38:38.280Z,0.00
2023-03-27T02:39:38.578Z,0.00
2023-03-27T02:40:39.984Z,0.00
2023-03-27T02:41:39.161Z,0.00
2023-03-27T02:42:39.470Z,0.00
2023-03-27T02:43:39.804Z,0.00
2023-03-27T02:44:47.310Z,1.00
2023-03-27T02:45:41.381Z,0.00
2023-03-27T02:46:40.700Z,0.00
2023-03-27T02:47:41.236Z,0.00
2023-03-27T02:48:41.280Z,0.00
2023-03-27T02:49:41.544Z,0.00
2023-03-27T02:50:41.884Z,0.00
2023-03-27T02:51:42.108Z,0.00
2023-03-27T02:52:42.574Z,0.00
2023-03-27T02:53:42.715Z,0.00
2023-03-27T02:54:43.067Z,0.00
2023-03-27T02:55:43.309Z,0.00
2023-03-27T02:56:43.704Z,0.00
2023-03-27T02:57:51.520Z,0.00
2023-03-27T02:58:45.273Z,0.00
2023-03-27T02:59:44.564Z,0.00
2023-03-27T03:00:44.867Z,0.00
2023-03-27T03:01:45.183Z,0.00
2023-03-27T03:02:45.722Z,0.00
2023-03-27T03:03:46.186Z,0.00
2023-03-27T03:04:46.124Z,0.00
2023-03-27T03:05:46.325Z,0.00
2023-03-27T03:06:46.634Z,0.00
2023-03-27T03:07:47.028Z,0.00
2023-03-27T03:08:47.257Z,0.00
2023-03-27T03:09:47.600Z,0.00
2023-03-27T03:10:47.897Z,0.00
2023-03-27T03:11:48.182Z,0.00
2023-03-27T03:12:48.517Z,0.00
2023-03-27T03:13:48.827Z,0.00
2023-03-27T03:14:49.350Z,0.00
2023-03-27T03:15:50.548Z,0.00
2023-03-27T03:16:49.779Z,0.00
2023-03-27T03:17:50.063Z,0.00
2023-03-27T03:18:50.349Z,0.00
2023-03-27T03:19:50.577Z,0.00
2023-03-27T03:20:50.923Z,0.00
2023-03-27T03:21:51.238Z,0.00
2023-03-27T03:22:51.610Z,0.00
2023-03-27T03:23:57.862Z,0.00
2023-03-27T03:24:53.168Z,0.00
2023-03-27T03:25:52.633Z,0.00
2023-03-27T03:26:52.961Z,0.00
2023-03-27T03:27:53.167Z,0.00
2023-03-27T03:29:01.092Z,0.00
2023-03-27T03:29:54.763Z,0.00
2023-03-27T03:30:54.247Z,0.00
2023-03-27T03:31:55.298Z,0.00
2023-03-27T03:32:54.747Z,0.00
2023-03-27T03:33:54.975Z,0.00
2023-03-27T03:34:55.268Z,0.00
2023-03-27T03:35:55.601Z,0.00
2023-03-27T03:36:55.915Z,0.00
2023-03-27T03:37:56.198Z,0.00
2023-03-27T03:38:56.502Z,0.00
2023-03-27T03:39:56.826Z,0.00
2023-03-27T03:40:57.357Z,0.00
2023-03-27T03:41:57.457Z,0.00
2023-03-27T03:42:57.673Z,1.00
2023-03-27T03:43:58.005Z,0.00
2023-03-27T03:44:58.313Z,0.00
2023-03-27T03:45:58.685Z,0.00
2023-03-27T03:46:58.938Z,0.00
2023-03-27T03:47:59.359Z,0.00
2023-03-27T03:48:59.571Z,0.00
2023-03-27T03:49:59.799Z,0.00
2023-03-27T03:51:00.178Z,0.00
2023-03-27T03:52:03.195Z,0.00
2023-03-27T03:53:00.802Z,0.00
2023-03-27T03:54:00.997Z,1.00
2023-03-27T03:55:01.336Z,0.00
2023-03-27T03:56:01.602Z,0.00
2023-03-27T03:57:01.954Z,0.00
2023-03-27T03:58:02.189Z,0.00
2023-03-27T03:59:02.556Z,0.00
2023-03-27T04:00:02.842Z,0.00
2023-03-27T04:01:03.184Z,0.00
2023-03-27T04:02:03.556Z,0.00
2023-03-27T04:03:03.893Z,0.00
2023-03-27T04:04:04.726Z,0.00
2023-03-27T04:05:08.736Z,1.00
2023-03-27T04:06:05.770Z,0.00
2023-03-27T04:07:04.880Z,0.00
2023-03-27T04:08:05.098Z,1.00
2023-03-27T04:09:05.394Z,0.00
2023-03-27T04:10:05.620Z,0.00
2023-03-27T04:11:05.916Z,0.00
2023-03-27T04:12:06.189Z,0.00
2023-03-27T04:13:06.604Z,0.00
2023-03-27T04:14:06.741Z,0.00
2023-03-27T04:15:08.038Z,0.00
2023-03-27T04:16:07.315Z,0.00
2023-03-27T04:17:07.568Z,1.00
2023-03-27T04:18:08.089Z,0.00
2023-03-27T04:19:08.312Z,0.00
2023-03-27T04:20:08.529Z,0.00
2023-03-27T04:21:08.801Z,1.00
2023-03-27T04:22:09.118Z,0.00
2023-03-27T04:23:09.479Z,0.00
2023-03-27T04:24:09.558Z,1.00
2023-03-27T04:25:09.844Z,1.00
2023-03-27T04:26:10.200Z,0.00
2023-03-27T04:27:10.497Z,0.00
2023-03-27T04:28:10.789Z,0.00
2023-03-27T04:29:11.048Z,0.00
2023-03-27T04:30:11.283Z,0.00
2023-03-27T04:31:11.784Z,0.00
2023-03-27T04:32:11.921Z,0.00
2023-03-27T04:33:12.228Z,0.00
2023-03-27T04:34:12.441Z,0.00
2023-03-27T04:35:12.749Z,0.00
2023-03-27T04:36:13.138Z,0.00
2023-03-27T04:37:13.349Z,0.00
2023-03-27T04:38:13.643Z,0.00
2023-03-27T04:39:13.917Z,0.00
2023-03-27T04:40:14.194Z,0.00
2023-03-27T04:41:14.542Z,0.00
2023-03-27T04:42:14.792Z,0.00
2023-03-27T04:43:15.061Z,1.00
2023-03-27T04:44:15.312Z,0.00
2023-03-27T04:45:15.664Z,0.00
2023-03-27T04:46:16.002Z,1.00
2023-03-27T04:47:16.126Z,1.00
2023-03-27T04:48:16.421Z,1.00
2023-03-27T04:49:17.045Z,1.00
2023-03-27T04:50:17.163Z,2.00
2023-03-27T04:51:17.543Z,0.00
2023-03-27T04:52:17.674Z,2.00
2023-03-27T04:53:17.888Z,1.00
2023-03-27T04:54:18.301Z,0.00
2023-03-27T04:55:18.550Z,2.00
2023-03-27T04:56:18.840Z,1.00
2023-03-27T04:57:19.332Z,7.00
2023-03-27T04:58:19.507Z,6.00
2023-03-27T04:59:19.834Z,5.00
2023-03-27T05:00:20.138Z,4.00
2023-03-27T05:01:20.378Z,3.00
2023-03-27T05:02:20.578Z,5.00
2023-03-27T05:03:20.994Z,7.00
2023-03-27T05:04:21.220Z,9.00
2023-03-27T05:05:21.404Z,17.00
2023-03-27T05:06:21.713Z,12.00
2023-03-27T05:07:22.207Z,17.00
2023-03-27T05:08:22.370Z,19.00
2023-03-27T05:09:22.724Z,25.00
2023-03-27T05:10:22.988Z,23.00
2023-03-27T05:11:23.167Z,35.00
2023-03-27T05:12:23.948Z,38.00
2023-03-27T05:13:23.839Z,37.00
2023-03-27T05:14:24.242Z,45.00
2023-03-27T05:15:24.572Z,52.00
2023-03-27T05:16:24.963Z,58.00
2023-03-27T05:17:25.174Z,64.00
2023-03-27T05:18:25.936Z,70.00
2023-03-27T05:19:26.706Z,75.00
2023-03-27T05:20:25.838Z,83.00
2023-03-27T05:21:26.966Z,95.00
2023-03-27T05:22:26.378Z,102.00
2023-03-27T05:23:26.665Z,110.00
2023-03-27T05:24:28.310Z,115.00
2023-03-27T05:25:27.320Z,123.00
2023-03-27T05:26:28.703Z,136.00
2023-03-27T05:27:27.866Z,149.00
2023-03-27T05:28:28.137Z,149.00
2023-03-27T05:29:28.381Z,161.00
2023-03-27T05:30:28.674Z,174.00
2023-03-27T05:31:28.938Z,186.00
2023-03-27T05:32:29.504Z,198.00
2023-03-27T05:33:30.033Z,203.00
2023-03-27T05:34:30.300Z,218.00
2023-03-27T05:35:30.085Z,228.00
2023-03-27T05:36:30.424Z,238.00
2023-03-27T05:37:30.512Z,250.00
2023-03-27T05:38:30.716Z,257.00
2023-03-27T05:39:31.148Z,275.00
2023-03-27T05:40:31.366Z,287.00
2023-03-27T05:41:31.697Z,301.00
2023-03-27T05:42:31.911Z,313.00
2023-03-27T05:43:38.258Z,324.00
2023-03-27T05:44:32.468Z,326.00
2023-03-27T05:45:32.687Z,340.00
2023-03-27T05:46:33.119Z,350.00
2023-03-27T05:47:33.311Z,357.00
2023-03-27T05:48:33.515Z,363.00
2023-03-27T05:49:34.434Z,379.00
2023-03-27T05:50:34.176Z,388.00
2023-03-27T05:51:34.486Z,404.00
2023-03-27T05:52:34.708Z,409.00
2023-03-27T05:53:34.975Z,425.00
2023-03-27T05:54:35.182Z,429.00
2023-03-27T05:55:35.527Z,445.00
2023-03-27T05:56:35.923Z,452.00
2023-03-27T05:57:36.110Z,464.00
2023-03-27T05:58:36.375Z,477.00
2023-03-27T05:59:36.610Z,491.00
2023-03-27T06:00:36.840Z,503.00
2023-03-27T06:01:37.085Z,509.00
2023-03-27T06:02:37.351Z,511.00
2023-03-27T06:03:37.718Z,521.00
2023-03-27T06:04:37.846Z,545.00
2023-03-27T06:05:38.050Z,536.00
2023-03-27T06:06:39.257Z,590.00
2023-03-27T06:07:40.891Z,526.00
2023-03-27T06:08:39.029Z,563.00
2023-03-27T06:09:39.419Z,582.00
2023-03-27T06:10:39.563Z,562.00
2023-03-27T06:11:39.756Z,625.00
2023-03-27T06:12:39.938Z,632.00
2023-03-27T06:13:40.338Z,616.00
2023-03-27T06:14:40.607Z,663.00
2023-03-27T06:15:40.903Z,640.00
2023-03-27T06:16:41.204Z,687.00
2023-03-27T06:17:41.418Z,691.00
2023-03-27T06:18:41.647Z,692.00
2023-03-27T06:19:41.977Z,693.00
2023-03-27T06:20:42.142Z,685.00
2023-03-27T06:21:42.522Z,683.00
2023-03-27T06:22:42.755Z,686.00
2023-03-27T06:23:43.114Z,678.00
2023-03-27T06:24:43.439Z,689.00
2023-03-27T06:25:43.758Z,711.00
2023-03-27T06:26:43.967Z,721.00
2023-03-27T06:27:44.252Z,731.00
2023-03-27T06:28:44.503Z,737.00
2023-03-27T06:29:44.775Z,725.00
2023-03-27T06:30:45.024Z,738.00
2023-03-27T06:31:45.321Z,754.00
2023-03-27T06:32:45.601Z,788.00
2023-03-27T06:33:45.872Z,810.00
2023-03-27T06:34:46.073Z,845.00
2023-03-27T06:35:53.664Z,879.00
2023-03-27T06:36:47.749Z,653.00
2023-03-27T06:37:49.445Z,1221.00
2023-03-27T06:38:47.482Z,755.00
2023-03-27T06:39:47.680Z,923.00
2023-03-27T06:40:47.921Z,1010.00
2023-03-27T06:41:50.714Z,992.00
2023-03-27T06:42:48.487Z,995.00
2023-03-27T06:43:48.822Z,1009.00
2023-03-27T06:44:49.036Z,998.00
2023-03-27T06:45:49.346Z,978.00
2023-03-27T06:46:49.590Z,994.00
2023-03-27T06:47:54.345Z,1012.00
2023-03-27T06:48:51.160Z,1018.00
2023-03-27T06:49:50.447Z,1001.00
2023-03-27T06:50:50.676Z,1040.00
2023-03-27T06:51:50.951Z,978.00
2023-03-27T06:52:51.174Z,910.00
2023-03-27T06:53:51.463Z,916.00
2023-03-27T06:54:51.632Z,881.00
2023-03-27T06:55:52.032Z,877.00
2023-03-27T06:56:52.383Z,1595.00
2023-03-27T06:57:52.595Z,755.00
2023-03-27T06:58:52.780Z,1058.00
2023-03-27T06:59:53.128Z,1064.00
2023-03-27T07:00:53.378Z,1059.00
2023-03-27T07:01:53.704Z,1090.00
2023-03-27T07:02:53.953Z,1187.00
2023-03-27T07:03:54.147Z,1139.00
2023-03-27T07:05:03.669Z,1132.00
2023-03-27T07:05:56.006Z,1102.00
2023-03-27T07:06:55.012Z,1151.00
2023-03-27T07:07:55.305Z,1175.00
2023-03-27T07:08:55.626Z,1190.00
2023-03-27T07:09:56.060Z,1193.00
2023-03-27T07:11:10.791Z,1248.00
2023-03-27T07:11:57.529Z,1248.00
2023-03-27T07:12:56.787Z,1231.00
2023-03-27T07:13:57.052Z,1276.00
2023-03-27T07:14:57.359Z,1280.00
2023-03-27T07:15:57.571Z,1301.00
2023-03-27T07:16:57.801Z,1338.00
2023-03-27T07:17:58.075Z,1343.00
2023-03-27T07:19:01.208Z,1367.00
2023-03-27T07:19:58.977Z,1393.00
2023-03-27T07:20:59.274Z,1366.00
2023-03-27T07:21:59.184Z,1376.00
2023-03-27T07:22:59.413Z,1398.00
2023-03-27T07:23:59.741Z,1423.00
2023-03-27T07:25:00.003Z,1421.00
2023-03-27T07:26:00.329Z,1489.00
2023-03-27T07:27:00.479Z,1517.00
2023-03-27T07:28:00.824Z,1481.00
2023-03-27T07:29:01.150Z,1602.00
2023-03-27T07:30:01.525Z,1660.00
2023-03-27T07:31:01.761Z,1644.00
2023-03-27T07:32:06.272Z,1790.00
2023-03-27T07:33:03.373Z,1978.00
2023-03-27T07:34:02.806Z,1887.00
2023-03-27T07:35:02.899Z,1986.00
2023-03-27T07:36:03.290Z,2176.00
2023-03-27T07:37:03.489Z,1853.00
2023-03-27T07:38:03.843Z,1810.00
2023-03-27T07:39:04.102Z,1797.00
2023-03-27T07:40:04.414Z,1901.00
2023-03-27T07:41:04.584Z,1916.00
2023-03-27T07:42:04.954Z,1842.00
2023-03-27T07:43:05.240Z,1825.00
2023-03-27T07:44:05.475Z,1768.00
2023-03-27T07:45:05.810Z,1735.00
2023-03-27T07:46:06.193Z,1705.00
2023-03-27T07:47:06.269Z,1723.00
2023-03-27T07:48:06.678Z,1737.00
2023-03-27T07:49:06.891Z,1746.00
2023-03-27T07:50:07.261Z,1829.00
2023-03-27T07:51:13.869Z,1827.00
2023-03-27T07:52:08.927Z,1895.00
2023-03-27T07:53:08.455Z,1896.00
2023-03-27T07:54:08.385Z,1880.00
2023-03-27T07:55:08.615Z,1909.00
2023-03-27T07:56:08.981Z,3220.00
2023-03-27T07:57:09.346Z,1940.00
2023-03-27T07:58:09.585Z,1871.00
2023-03-27T07:59:09.803Z,1858.00
2023-03-27T08:00:10.136Z,1076.00
2023-03-27T08:01:10.402Z,2029.00
2023-03-27T08:02:10.694Z,2000.00
2023-03-27T08:03:11.083Z,3004.00
2023-03-27T08:04:11.265Z,688.00
2023-03-27T08:05:11.607Z,2586.00
2023-03-27T08:06:11.895Z,1243.00
2023-03-27T08:07:12.108Z,2071.00
2023-03-27T08:08:12.423Z,2349.00
2023-03-27T08:09:12.585Z,3393.00
2023-03-27T08:10:12.984Z,2264.00
2023-03-27T08:11:23.159Z,2287.00
2023-03-27T08:12:14.489Z,2191.00
2023-03-27T08:13:13.809Z,2419.00
2023-03-27T08:14:13.979Z,2360.00
2023-03-27T08:15:14.310Z,3199.00
2023-03-27T08:16:14.552Z,2410.00
2023-03-27T08:17:16.624Z,2429.00
2023-03-27T08:18:15.104Z,2318.00
2023-03-27T08:19:15.315Z,2374.00
2023-03-27T08:20:15.773Z,2421.00
2023-03-27T08:21:15.966Z,2447.00
2023-03-27T08:22:16.220Z,2519.00
2023-03-27T08:23:16.544Z,2689.00
2023-03-27T08:24:16.725Z,5972.00
2023-03-27T08:25:17.048Z,918.00
2023-03-27T08:26:17.302Z,4140.00
2023-03-27T08:27:17.554Z,1255.00
2023-03-27T08:28:17.880Z,5751.00
2023-03-27T08:29:18.104Z,996.00
2023-03-27T08:30:18.497Z,2927.00
2023-03-27T08:31:18.770Z,2979.00
2023-03-27T08:32:19.161Z,1194.00
2023-03-27T08:33:19.432Z,2835.00
2023-03-27T08:34:19.706Z,2944.00
2023-03-27T08:35:19.975Z,2805.00
2023-03-27T08:36:20.242Z,3282.00
2023-03-27T08:37:20.456Z,1405.00
2023-03-27T08:38:26.645Z,3482.00
2023-03-27T08:39:21.939Z,2409.00
2023-03-27T08:40:21.252Z,2305.00
2023-03-27T08:41:21.455Z,1786.00
2023-03-27T08:42:21.874Z,5593.00
2023-03-27T08:43:22.122Z,2018.00
2023-03-27T08:44:22.388Z,1937.00
2023-03-27T08:45:22.683Z,2983.00
2023-03-27T08:46:23.007Z,3129.00
2023-03-27T08:47:23.253Z,2315.00
2023-03-27T08:48:23.468Z,2121.00
2023-03-27T08:49:23.829Z,2340.00
2023-03-27T08:50:26.324Z,1193.00
2023-03-27T08:51:24.214Z,2144.00
2023-03-27T08:52:24.530Z,1583.00
2023-03-27T08:53:24.717Z,1904.00
2023-03-27T08:54:24.966Z,2057.00
2023-03-27T08:55:25.162Z,3673.00
2023-03-27T08:56:25.543Z,3456.00
2023-03-27T08:57:25.760Z,3699.00
2023-03-27T08:58:29.874Z,4391.00
2023-03-27T08:59:26.398Z,5785.00
2023-03-27T09:00:26.636Z,2521.00
2023-03-27T09:01:26.966Z,2665.00
2023-03-27T09:02:27.271Z,4255.00
2023-03-27T09:03:28.120Z,5851.00
2023-03-27T09:04:27.769Z,3544.00
2023-03-27T09:05:28.022Z,1518.00
2023-03-27T09:06:28.296Z,3552.00
2023-03-27T09:07:28.672Z,3588.00
2023-03-27T09:08:28.868Z,4002.00
2023-03-27T09:09:29.158Z,3427.00
2023-03-27T09:10:29.433Z,3091.00
2023-03-27T09:11:29.795Z,2349.00
2023-03-27T09:12:29.978Z,2083.00
2023-03-27T09:13:30.365Z,3250.00
2023-03-27T09:14:30.540Z,2782.00
2023-03-27T09:15:30.794Z,2060.00
2023-03-27T09:16:31.134Z,1946.00
2023-03-27T09:17:31.385Z,1922.00
2023-03-27T09:18:31.737Z,3339.00
2023-03-27T09:19:31.984Z,5466.00
2023-03-27T09:20:32.332Z,3987.00
2023-03-27T09:21:32.520Z,4834.00
2023-03-27T09:22:32.951Z,5617.00
2023-03-27T09:23:33.174Z,7197.00
2023-03-27T09:24:33.490Z,2679.00
2023-03-27T09:25:33.799Z,1517.00
2023-03-27T09:26:34.000Z,1216.00
2023-03-27T09:27:34.314Z,1786.00
2023-03-27T09:28:34.574Z,1434.00
2023-03-27T09:29:34.839Z,3258.00
2023-03-27T09:30:35.114Z,5730.00
2023-03-27T09:31:35.472Z,5422.00
2023-03-27T09:32:35.993Z,2887.00
2023-03-27T09:33:36.047Z,2706.00
2023-03-27T09:34:36.318Z,2959.00
2023-03-27T09:35:36.609Z,4721.00
2023-03-27T09:36:36.909Z,2622.00
2023-03-27T09:37:37.236Z,2188.00
2023-03-27T09:38:37.405Z,2765.00
2023-03-27T09:39:37.678Z,2203.00
2023-03-27T09:40:38.032Z,14025.00
2023-03-27T09:41:38.231Z,3118.00
2023-03-27T09:42:38.685Z,1653.00
2023-03-27T09:43:38.852Z,2917.00
2023-03-27T09:44:39.357Z,18077.00
2023-03-27T09:45:39.415Z,24525.00
2023-03-27T09:46:39.815Z,17507.00
2023-03-27T09:47:40.412Z,12494.00
2023-03-27T09:48:40.315Z,15905.00
2023-03-27T09:49:40.549Z,25530.00
2023-03-27T09:50:40.929Z,6286.00
2023-03-27T09:51:41.011Z,26342.00
2023-03-27T09:52:41.242Z,12290.00
2023-03-27T09:53:41.636Z,2365.00
2023-03-27T09:54:41.874Z,1554.00
2023-03-27T09:55:42.170Z,1549.00
2023-03-27T09:56:42.562Z,1087.00
2023-03-27T09:57:42.714Z,923.00
2023-03-27T09:58:42.948Z,787.00
2023-03-27T09:59:43.219Z,748.00
2023-03-27T10:00:43.589Z,789.00
2023-03-27T10:01:43.773Z,741.00
2023-03-27T10:02:44.086Z,833.00
2023-03-27T10:03:44.442Z,959.00
2023-03-27T10:04:44.694Z,1151.00
2023-03-27T10:05:44.925Z,1693.00
2023-03-27T10:06:45.246Z,2053.00
2023-03-27T10:07:45.570Z,2118.00
2023-03-27T10:08:45.782Z,2609.00
2023-03-27T10:09:46.012Z,2534.00
2023-03-27T10:10:46.412Z,10869.00
2023-03-27T10:11:46.651Z,8663.00
2023-03-27T10:12:47.018Z,13823.00
2023-03-27T10:13:47.309Z,28651.00
2023-03-27T10:14:47.653Z,6719.00
2023-03-27T10:15:47.838Z,6629.00
2023-03-27T10:16:48.231Z,20747.00
2023-03-27T10:17:48.435Z,18744.00
2023-03-27T10:18:48.694Z,20943.00
2023-03-27T10:19:49.126Z,4945.00
2023-03-27T10:20:49.374Z,58296.00
2023-03-27T10:21:49.558Z,4993.00
2023-03-27T10:22:50.150Z,4016.00
2023-03-27T10:23:50.227Z,10828.00
2023-03-27T10:24:54.733Z,3336.00
2023-03-27T10:25:50.774Z,3049.00
2023-03-27T10:26:51.612Z,3049.00
2023-03-27T10:27:51.388Z,3239.00
2023-03-27T10:28:51.724Z,3882.00
2023-03-27T10:29:52.019Z,26804.00
2023-03-27T10:30:52.256Z,2928.00
2023-03-27T10:31:52.583Z,1920.00
2023-03-27T10:32:52.983Z,1741.00
2023-03-27T10:33:53.052Z,1762.00
2023-03-27T10:34:53.264Z,2306.00
2023-03-27T10:35:53.717Z,2420.00
2023-03-27T10:36:53.930Z,56733.00
2023-03-27T10:37:54.138Z,4341.00
2023-03-27T10:38:54.521Z,2156.00
2023-03-27T10:39:54.766Z,12362.00
2023-03-27T10:40:55.335Z,76941.00
2023-03-27T10:41:55.356Z,77295.00
2023-03-27T10:42:55.661Z,74717.00
2023-03-27T10:43:55.950Z,55544.00
2023-03-27T10:44:56.161Z,74355.00
2023-03-27T10:45:56.561Z,76826.00
2023-03-27T10:46:56.762Z,65172.00
2023-03-27T10:47:56.968Z,5238.00
2023-03-27T10:48:57.212Z,4125.00
2023-03-27T10:49:57.464Z,3803.00
2023-03-27T10:50:57.925Z,3265.00
2023-03-27T10:51:57.971Z,2661.00
2023-03-27T10:52:58.393Z,2096.00
2023-03-27T10:53:58.742Z,1627.00
2023-03-27T10:54:58.791Z,1683.00
2023-03-27T10:55:59.165Z,1810.00
2023-03-27T10:56:59.475Z,1814.00
2023-03-27T10:57:59.822Z,1593.00
2023-03-27T10:59:00.175Z,1665.00
2023-03-27T11:00:00.233Z,2190.00
2023-03-27T11:01:00.750Z,2971.00
2023-03-27T11:02:02.078Z,2967.00
2023-03-27T11:03:01.304Z,2308.00
2023-03-27T11:04:01.510Z,1838.00
2023-03-27T11:05:01.834Z,1772.00
2023-03-27T11:06:02.054Z,1793.00
2023-03-27T11:07:02.366Z,1734.00
2023-03-27T11:08:02.548Z,1864.00
2023-03-27T11:09:02.927Z,2393.00
2023-03-27T11:10:03.359Z,2156.00
2023-03-27T11:11:03.394Z,1919.00
2023-03-27T11:12:03.625Z,1629.00
2023-03-27T11:13:04.071Z,1799.00
2023-03-27T11:14:04.126Z,1769.00
2023-03-27T11:15:04.496Z,1425.00
2023-03-27T11:16:04.842Z,1092.00
2023-03-27T11:17:05.090Z,967.00
2023-03-27T11:18:05.461Z,832.00
2023-03-27T11:19:06.769Z,993.00
2023-03-27T11:20:05.989Z,1291.00
2023-03-27T11:21:06.317Z,2232.00
2023-03-27T11:22:06.522Z,5004.00
2023-03-27T11:23:06.807Z,4301.00
2023-03-27T11:24:07.074Z,3301.00
2023-03-27T11:25:07.367Z,74436.00
2023-03-27T11:26:07.617Z,73441.00
2023-03-27T11:27:07.876Z,65775.00
2023-03-27T11:28:08.142Z,73512.00
2023-03-27T11:29:08.443Z,73540.00
2023-03-27T11:30:08.741Z,79169.00
2023-03-27T11:31:12.093Z,73962.00
2023-03-27T11:32:09.284Z,73630.00
2023-03-27T11:33:09.805Z,73853.00
2023-03-27T11:34:09.886Z,75310.00
2023-03-27T11:35:10.140Z,73320.00
2023-03-27T11:36:10.415Z,75106.00
2023-03-27T11:37:10.664Z,74658.00
2023-03-27T11:38:10.942Z,74697.00
2023-03-27T11:39:11.236Z,72772.00
2023-03-27T11:40:12.777Z,16075.00
2023-03-27T11:41:12.794Z,16400.00
2023-03-27T11:42:12.010Z,22317.00
2023-03-27T11:43:12.338Z,67422.00
2023-03-27T11:44:12.537Z,66568.00
2023-03-27T11:45:13.007Z,23236.00
2023-03-27T11:46:13.278Z,5195.00
2023-03-27T11:47:13.484Z,7551.00
2023-03-27T11:48:13.818Z,8481.00
2023-03-27T11:49:14.089Z,6043.00
2023-03-27T11:50:14.256Z,6019.00
2023-03-27T11:51:14.531Z,73959.00
2023-03-27T11:52:14.761Z,64067.00
2023-03-27T11:53:15.158Z,14266.00
2023-03-27T11:54:15.460Z,4986.00
2023-03-27T11:55:15.690Z,7259.00
2023-03-27T11:56:15.924Z,10813.00
2023-03-27T11:57:16.358Z,65900.00
2023-03-27T11:58:16.600Z,8689.00
2023-03-27T11:59:16.810Z,21839.00
2023-03-27T12:00:17.077Z,78332.00
2023-03-27T12:01:17.874Z,73765.00
2023-03-27T12:02:17.742Z,73806.00
2023-03-27T12:03:17.882Z,73961.00
2023-03-27T12:04:18.137Z,74635.00
2023-03-27T12:05:18.465Z,74586.00
2023-03-27T12:06:18.664Z,74789.00
2023-03-27T12:07:33.865Z,77085.00
2023-03-27T12:08:20.226Z,74446.00
2023-03-27T12:09:19.560Z,74346.00
2023-03-27T12:10:25.365Z,74529.00
2023-03-27T12:11:21.168Z,74527.00
2023-03-27T12:12:20.421Z,74675.00
2023-03-27T12:13:22.677Z,74462.00
2023-03-27T12:14:23.976Z,74371.00
2023-03-27T12:15:22.150Z,74522.00
2023-03-27T12:16:21.608Z,74524.00
2023-03-27T12:17:21.797Z,74462.00
2023-03-27T12:18:25.696Z,74729.00
2023-03-27T12:19:29.759Z,75016.00
2023-03-27T12:20:23.357Z,75096.00
2023-03-27T12:21:22.716Z,75101.00
2023-03-27T12:22:24.308Z,75037.00
2023-03-27T12:23:23.293Z,74640.00
2023-03-27T12:24:23.534Z,74893.00
2023-03-27T12:25:23.792Z,74635.00
2023-03-27T12:26:24.043Z,74551.00
2023-03-27T12:27:24.348Z,74887.00
2023-03-27T12:28:24.581Z,74693.00
2023-03-27T12:29:24.804Z,74671.00
2023-03-27T12:30:25.199Z,3956.00
2023-03-27T12:31:25.849Z,15548.00
2023-03-27T12:32:25.773Z,81127.00
2023-03-27T12:33:26.010Z,10847.00
2023-03-27T12:34:26.297Z,6123.00
2023-03-27T12:35:26.630Z,6113.00
2023-03-27T12:36:26.837Z,4844.00
2023-03-27T12:37:27.170Z,2329.00
2023-03-27T12:38:27.523Z,4753.00